This is the latest recevied weather packets stored in our database for station/object AA7F. If no packets are shown the sender has not sent any weather packets the latest 10 day(s).
| Time | Temp. | Humidity | Pressure | Rain* | Wind** | Luminosity | Snow |
|---|---|---|---|---|---|---|---|
| 1777451026 | 8.33° C | 84% | 1020.3 hPa | 0 mm | - | 0 W/m² | - |
| 1777450722 | 7.78° C | 84% | 1020.3 hPa | 0 mm | - | 0 W/m² | - |
| 1777450418 | 8.33° C | 84% | 1020.4 hPa | 0 mm | - | 0 W/m² | - |
| 1777450114 | 8.33° C | 84% | 1020.3 hPa | 0 mm | - | 0 W/m² | - |
| 1777449811 | 8.33° C | 83% | 1020.3 hPa | 0 mm | - | 0 W/m² | - |
| 1777449507 | 8.33° C | 83% | 1020.2 hPa | 0 mm | - | 0 W/m² | - |
| 1777449203 | 8.33° C | 83% | 1020.3 hPa | 0 mm | - | 0 W/m² | - |
| 1777448899 | 8.33° C | 82% | 1020 hPa | 0 mm | - | 0 W/m² | - |
| 1777448596 | 8.33° C | 82% | 1020.1 hPa | 0 mm | - | 0 W/m² | - |
| 1777448293 | 8.89° C | 81% | 1020.2 hPa | 0 mm | - | 0 W/m² | - |
| 1777447989 | 8.33° C | 82% | 1020.2 hPa | 0 mm | - | 0 W/m² | - |
| 1777447684 | 7.22° C | 86% | 1020.2 hPa | 0 mm | - | 0 W/m² | - |
| 1777447381 | 6.67° C | 88% | 1020.3 hPa | 0 mm | - | 0 W/m² | - |
| 1777447078 | 6.67° C | 88% | 1020.2 hPa | 0 mm | - | 0 W/m² | - |
| 1777446776 | 7.22° C | 87% | 1020.1 hPa | 0 mm | - | 0 W/m² | - |
| 1777446471 | 7.22° C | 87% | 1020.2 hPa | 0 mm | - | 0 W/m² | - |
| 1777446168 | 7.22° C | 86% | 1020 hPa | 0 mm | - | 0 W/m² | - |
| 1777445865 | 7.22° C | 85% | 1020 hPa | 0 mm | - | 0 W/m² | - |
| 1777445561 | 7.78° C | 84% | 1020.1 hPa | 0 mm | - | 0 W/m² | - |
| 1777445258 | 7.78° C | 82% | 1020 hPa | 0 mm | - | 0 W/m² | - |
| 1777444954 | 8.89° C | 80% | 1020.2 hPa | 0 mm | - | 0 W/m² | - |
| 1777444649 | 8.33° C | 81% | 1020.1 hPa | 0 mm | - | 0 W/m² | - |
| 1777444346 | 8.33° C | 81% | 1020.1 hPa | 0 mm | - | 0 W/m² | - |
| 1777444044 | 8.89° C | 80% | 1019.9 hPa | 0 mm | - | 0 W/m² | - |
| 1777443739 | 8.89° C | 79% | 1019.9 hPa | 0 mm | - | 0 W/m² | - |
* Rain latest hour (hover to see other rain measurements)
** Current wind speed in m/s (hover to see current wind gust speed)